Time;durP1;ratioP1;P1;durP2;ratioP2;P2;SDS_P1;SDS_P2;PMS_P1;PMS_P2;Temp;Humidity;BMP_temperature;BMP_pressure;BME280_temperature;BME280_humidity;BME280_pressure;Samples;Min_cycle;Max_cycle;Signal;HPM_P1;HPM_P2
2022/12/18 00:00:01;;;;;;;;;;;;;;;;;;1051074;28;2829;-50
2022/12/18 00:00:31;;;;;;;;;;;;;;;;;;1051181;28;2914;-50
2022/12/18 00:01:23;;;;;;;;;;;;;;;;;;1048292;28;2629;-53
2022/12/18 00:01:57;;;;;;;;;;;;;;;;;;1048450;28;2453;-49
2022/12/18 00:02:28;;;;;;;;;;;;;;;;;;1047450;28;1654;-53
2022/12/18 00:02:58;;;;;;;;;;;;;;;;;;1050048;28;2441;-49
2022/12/18 00:03:28;;;;;;;;;;;;;;;;;;1051110;28;1398;-51
2022/12/18 00:03:59;;;;;;;;;;;;;;;;;;1052077;28;2427;-52
2022/12/18 00:04:30;;;;;;;;;;;;;;;;;;1051272;28;2119;-48
2022/12/18 00:05:00;;;;;;;;;;;;;;;;;;1051124;28;2182;-49
2022/12/18 00:05:30;;;;;;;;;;;;;;;;;;1051026;28;2031;-50
2022/12/18 00:06:01;;;;;;;;;;;;;;;;;;1051628;28;2504;-49
2022/12/18 00:06:32;;;;;;;;;;;;;;;;;;1054866;28;2480;-50
2022/12/18 00:07:02;;;;;;;;;;;;;;;;;;1051090;28;1773;-49
2022/12/18 00:07:33;;;;;;;;;;;;;;;;;;1054037;28;3096;-51
2022/12/18 00:08:03;;;;;;;;;;;;;;;;;;1050292;28;1964;-52
2022/12/18 00:08:34;;;;;;;;;;;;;;;;;;1051509;28;2002;-50
2022/12/18 00:09:04;;;;;;;;;;;;;;;;;;1052500;28;2385;-50
2022/12/18 00:09:34;;;;;;;;;;;;;;;;;;1051859;28;2545;-48
2022/12/18 00:10:05;;;;;;;;;;;;;;;;;;1052797;28;2631;-50
2022/12/18 00:10:35;;;;;;;;;;;;;;;;;;1054873;28;1927;-50
2022/12/18 00:11:06;;;;;;;;;;;;;;;;;;1052773;28;2382;-51
2022/12/18 00:11:37;;;;;;;;;;;;;;;;;;1046679;28;2428;-52
2022/12/18 00:12:07;;;;;;;;;;;;;;;;;;1047895;28;2368;-48
2022/12/18 00:12:37;;;;;;;;;;;;;;;;;;1048943;28;2457;-49
2022/12/18 00:13:07;;;;;;;;;;;;;;;;;;1050174;28;2175;-50
2022/12/18 00:13:38;;;;;;;;;;;;;;;;;;1049428;28;2140;-53
2022/12/18 00:14:10;;;;;;;;;;;;;;;;;;1049298;28;2155;-50
2022/12/18 00:14:40;;;;;;;;;;;;;;;;;;1049099;28;2499;-49
2022/12/18 00:15:10;;;;;;;;;;;;;;;;;;1049460;28;2175;-49
2022/12/18 00:15:41;;;;;;;;;;;;;;;;;;1048262;28;2128;-49
2022/12/18 00:16:12;;;;;;;;;;;;;;;;;;1047884;28;2441;-51
2022/12/18 00:16:43;;;;;;;;;;;;;;;;;;1046963;28;2483;-49
2022/12/18 00:17:13;;;;;;;;;;;;;;;;;;1049354;28;2493;-50
2022/12/18 00:17:43;;;;;;;;;;;;;;;;;;1048891;28;2580;-51
2022/12/18 00:18:14;;;;;;;;;;;;;;;;;;1049446;28;2705;-51
2022/12/18 00:18:44;;;;;;;;;;;;;;;;;;1048096;28;1438;-54
2022/12/18 00:19:15;;;;;;;;;;;;;;;;;;1046369;28;2270;-53
2022/12/18 00:19:45;;;;;;;;;;;;;;;;;;1048004;28;2433;-48
2022/12/18 00:20:20;;;;;;;;;;;;;;;;;;1047777;28;2375;-53
2022/12/18 00:20:50;;;;;;;;;;;;;;;;;;1048646;28;2268;-52
2022/12/18 00:21:21;;;;;;;;;;;;;;;;;;1049926;28;2414;-52
2022/12/18 00:21:51;;;;;;;;;;;;;;;;;;1047693;28;2408;-49
2022/12/18 00:22:21;;;;;;;;;;;;;;;;;;1048341;28;2961;-50
2022/12/18 00:22:52;;;;;;;;;;;;;;;;;;1045224;28;2456;-50
2022/12/18 00:23:22;;;;;;;;;;;;;;;;;;1046395;28;1666;-49
2022/12/18 00:23:53;;;;;;;;;;;;;;;;;;1047516;28;2356;-53
2022/12/18 00:24:23;;;;;;;;;;;;;;;;;;1048760;28;2564;-51
2022/12/18 00:24:53;;;;;;;;;;;;;;;;;;1052224;28;2558;-52
2022/12/18 00:25:23;;;;;;;;;;;;;;;;;;1053631;28;2307;-51
2022/12/18 00:25:54;;;;;;;;;;;;;;;;;;1054575;28;2151;-48
2022/12/18 00:26:31;;;;;;;;;;;;;;;;;;1050611;28;2531;-51
2022/12/18 00:27:02;;;;;;;;;;;;;;;;;;1053012;28;2389;-48
2022/12/18 00:27:32;;;;;;;;;;;;;;;;;;1053951;28;1725;-49
2022/12/18 00:28:03;;;;;;;;;;;;;;;;;;1055489;28;2059;-50
2022/12/18 00:28:33;;;;;;;;;;;;;;;;;;1054466;28;2334;-50
2022/12/18 00:29:05;;;;;;;;;;;;;;;;;;1051758;28;2299;-52
2022/12/18 00:29:35;;;;;;;;;;;;;;;;;;1053746;28;2009;-52
2022/12/18 00:30:06;;;;;;;;;;;;;;;;;;1051646;28;2306;-49
2022/12/18 00:30:36;;;;;;;;;;;;;;;;;;1051073;28;1580;-50
2022/12/18 00:31:07;;;;;;;;;;;;;;;;;;1052743;28;2219;-50
2022/12/18 00:31:38;;;;;;;;;;;;;;;;;;1052354;28;2440;-52
2022/12/18 00:32:08;;;;;;;;;;;;;;;;;;1053088;28;2372;-50
2022/12/18 00:32:38;;;;;;;;;;;;;;;;;;1051180;28;2410;-54
2022/12/18 00:33:09;;;;;;;;;;;;;;;;;;1053326;28;2931;-50
2022/12/18 00:33:39;;;;;;;;;;;;;;;;;;1052409;28;1708;-50
2022/12/18 00:34:11;;;;;;;;;;;;;;;;;;1048423;28;2507;-51
2022/12/18 00:34:41;;;;;;;;;;;;;;;;;;1051293;28;1830;-50
2022/12/18 00:35:18;;;;;;;;;;;;;;;;;;1051230;28;1783;-50
2022/12/18 00:36:01;;;;;;;;;;;;;;;;;;1050211;28;2174;-48
2022/12/18 00:36:39;;;;;;;;;;;;;;;;;;1048214;28;2528;-53
2022/12/18 00:37:09;;;;;;;;;;;;;;;;;;1046592;28;2402;-48
2022/12/18 00:37:39;;;;;;;;;;;;;;;;;;1047673;28;2083;-51
2022/12/18 00:38:10;;;;;;;;;;;;;;;;;;1046941;28;1800;-49
2022/12/18 00:38:40;;;;;;;;;;;;;;;;;;1048496;28;2334;-50
2022/12/18 00:39:11;;;;;;;;;;;;;;;;;;1046252;28;2019;-50
2022/12/18 00:39:41;;;;;;;;;;;;;;;;;;1047298;28;2287;-51
2022/12/18 00:40:12;;;;;;;;;;;;;;;;;;1048106;28;1944;-49
2022/12/18 00:40:42;;;;;;;;;;;;;;;;;;1050005;28;2636;-50
2022/12/18 00:41:13;;;;;;;;;;;;;;;;;;1046940;28;2302;-50
2022/12/18 00:43:21;;;;;;;;;;;;;;;;;;1047007;28;2066;-48
2022/12/18 00:43:51;;;;;;;;;;;;;;;;;;1047095;28;1715;-54
2022/12/18 00:44:22;;;;;;;;;;;;;;;;;;1048350;28;2043;-50
2022/12/18 00:44:52;;;;;;;;;;;;;;;;;;1049152;28;2386;-51
2022/12/18 00:45:29;;;;;;;;;;;;;;;;;;1051641;28;1920;-49
2022/12/18 00:46:00;;;;;;;;;;;;;;;;;;1051688;28;1667;-50
2022/12/18 00:46:30;;;;;;;;;;;;;;;;;;1050536;28;1809;-51
2022/12/18 00:47:00;;;;;;;;;;;;;;;;;;1048980;28;1667;-51
2022/12/18 00:47:31;;;;;;;;;;;;;;;;;;1046407;28;1708;-50
2022/12/18 00:48:01;;;;;;;;;;;;;;;;;;1051764;28;1629;-48
2022/12/18 00:48:32;;;;;;;;;;;;;;;;;;1049986;28;2319;-49
2022/12/18 00:49:02;;;;;;;;;;;;;;;;;;1047289;28;2452;-49
2022/12/18 00:49:32;;;;;;;;;;;;;;;;;;1047338;28;1987;-50
2022/12/18 00:50:03;;;;;;;;;;;;;;;;;;1049159;28;2176;-52
2022/12/18 00:50:33;;;;;;;;;;;;;;;;;;1049514;28;2035;-51
2022/12/18 00:51:03;;;;;;;;;;;;;;;;;;1047960;28;1936;-49
2022/12/18 00:51:33;;;;;;;;;;;;;;;;;;1047132;28;2064;-52
2022/12/18 00:52:04;;;;;;;;;;;;;;;;;;1046866;28;1904;-50
2022/12/18 00:52:34;;;;;;;;;;;;;;;;;;1047256;28;2033;-50
2022/12/18 00:53:05;;;;;;;;;;;;;;;;;;1042520;28;1727;-51
2022/12/18 00:53:35;;;;;;;;;;;;;;;;;;1042588;28;2460;-51
2022/12/18 00:54:05;;;;;;;;;;;;;;;;;;1042453;28;2075;-49
2022/12/18 00:54:35;;;;;;;;;;;;;;;;;;1047315;28;2096;-50
2022/12/18 00:55:06;;;;;;;;;;;;;;;;;;1047909;28;2371;-51
2022/12/18 00:55:39;;;;;;;;;;;;;;;;;;1049089;28;2276;-49
2022/12/18 00:56:09;;;;;;;;;;;;;;;;;;1046883;28;2114;-50
2022/12/18 00:56:40;;;;;;;;;;;;;;;;;;1048584;28;2051;-49
2022/12/18 00:57:10;;;;;;;;;;;;;;;;;;1046736;28;2128;-49
2022/12/18 00:57:41;;;;;;;;;;;;;;;;;;1050073;28;1740;-49
2022/12/18 00:58:12;;;;;;;;;;;;;;;;;;1050601;28;1839;-49
2022/12/18 00:58:42;;;;;;;;;;;;;;;;;;1050846;28;3066;-48
2022/12/18 00:59:12;;;;;;;;;;;;;;;;;;1047025;28;2223;-50
2022/12/18 00:59:42;;;;;;;;;;;;;;;;;;1050044;28;1677;-49
2022/12/18 01:00:14;;;;;;;;;;;;;;;;;;1049166;28;2319;-49
2022/12/18 01:00:44;;;;;;;;;;;;;;;;;;1049818;28;2307;-51
2022/12/18 01:01:15;;;;;;;;;;;;;;;;;;1050135;28;2095;-48
2022/12/18 01:01:45;;;;;;;;;;;;;;;;;;1047501;28;1737;-49
2022/12/18 01:02:15;;;;;;;;;;;;;;;;;;1047034;28;3008;-49
2022/12/18 01:02:46;;;;;;;;;;;;;;;;;;1047030;28;2282;-49
2022/12/18 01:03:16;;;;;;;;;;;;;;;;;;1047472;28;1784;-49
2022/12/18 01:03:46;;;;;;;;;;;;;;;;;;1051055;28;1929;-48
2022/12/18 01:04:17;;;;;;;;;;;;;;;;;;1048425;28;1988;-50
2022/12/18 01:04:47;;;;;;;;;;;;;;;;;;1047078;28;2475;-49
2022/12/18 01:05:17;;;;;;;;;;;;;;;;;;1047896;28;2774;-51
2022/12/18 01:06:01;;;;;;;;;;;;;;;;;;1047642;28;1709;-52
2022/12/18 01:06:32;;;;;;;;;;;;;;;;;;1048115;28;2367;-50
2022/12/18 01:07:02;;;;;;;;;;;;;;;;;;1047963;28;2174;-49
2022/12/18 01:07:32;;;;;;;;;;;;;;;;;;1047631;28;2439;-49
2022/12/18 01:08:02;;;;;;;;;;;;;;;;;;1047873;28;1895;-54
2022/12/18 01:08:33;;;;;;;;;;;;;;;;;;1045869;28;2984;-51
2022/12/18 01:09:03;;;;;;;;;;;;;;;;;;1050763;28;2429;-52
2022/12/18 01:09:34;;;;;;;;;;;;;;;;;;1047233;28;2138;-51
2022/12/18 01:10:05;;;;;;;;;;;;;;;;;;1048244;28;2089;-51
2022/12/18 01:10:35;;;;;;;;;;;;;;;;;;1046597;28;2462;-52
2022/12/18 01:11:10;;;;;;;;;;;;;;;;;;1048423;28;2643;-49
2022/12/18 01:11:40;;;;;;;;;;;;;;;;;;1047578;28;2421;-48
2022/12/18 01:12:10;;;;;;;;;;;;;;;;;;1051128;28;1648;-50
2022/12/18 01:12:41;;;;;;;;;;;;;;;;;;1050767;28;2079;-53
2022/12/18 01:13:11;;;;;;;;;;;;;;;;;;1049855;28;2527;-49
2022/12/18 01:13:42;;;;;;;;;;;;;;;;;;1050600;28;1940;-50
2022/12/18 01:14:12;;;;;;;;;;;;;;;;;;1047389;28;2439;-49
2022/12/18 01:14:42;;;;;;;;;;;;;;;;;;1049678;28;1984;-50
2022/12/18 01:15:13;;;;;;;;;;;;;;;;;;1048062;28;2487;-52
2022/12/18 01:15:49;;;;;;;;;;;;;;;;;;1048984;28;2042;-51
2022/12/18 01:16:20;;;;;;;;;;;;;;;;;;1047327;28;2122;-53
2022/12/18 01:16:50;;;;;;;;;;;;;;;;;;1049399;28;2502;-52
2022/12/18 01:17:21;;;;;;;;;;;;;;;;;;1051509;28;1790;-49
2022/12/18 01:17:54;;;;;;;;;;;;;;;;;;1050365;28;2189;-50
2022/12/18 01:18:24;;;;;;;;;;;;;;;;;;1046823;28;1481;-48
2022/12/18 01:18:55;;;;;;;;;;;;;;;;;;1047071;28;2417;-50
2022/12/18 01:19:25;;;;;;;;;;;;;;;;;;1047241;28;2525;-48
2022/12/18 01:19:55;;;;;;;;;;;;;;;;;;1048990;28;2055;-50
2022/12/18 01:20:25;;;;;;;;;;;;;;;;;;1048576;28;2483;-53
2022/12/18 01:20:56;;;;;;;;;;;;;;;;;;1048752;28;2083;-50
2022/12/18 01:21:26;;;;;;;;;;;;;;;;;;1048563;28;2934;-51
2022/12/18 01:21:56;;;;;;;;;;;;;;;;;;1049136;28;2494;-50
2022/12/18 01:22:27;;;;;;;;;;;;;;;;;;1047847;28;2316;-49
2022/12/18 01:22:57;;;;;;;;;;;;;;;;;;1049509;28;2474;-48
2022/12/18 01:23:27;;;;;;;;;;;;;;;;;;1047851;28;2400;-50
2022/12/18 01:23:57;;;;;;;;;;;;;;;;;;1048153;28;2975;-50
2022/12/18 01:24:28;;;;;;;;;;;;;;;;;;1049698;28;2452;-49
2022/12/18 01:24:58;;;;;;;;;;;;;;;;;;1048463;28;2220;-49
2022/12/18 01:25:28;;;;;;;;;;;;;;;;;;1047677;28;2581;-53
2022/12/18 01:26:03;;;;;;;;;;;;;;;;;;1048662;28;2060;-53
2022/12/18 01:26:33;;;;;;;;;;;;;;;;;;1046986;28;2616;-51
2022/12/18 01:27:03;;;;;;;;;;;;;;;;;;1051264;28;1793;-50
2022/12/18 01:27:34;;;;;;;;;;;;;;;;;;1048989;28;2199;-49
2022/12/18 01:28:04;;;;;;;;;;;;;;;;;;1047502;28;1987;-49
2022/12/18 01:28:35;;;;;;;;;;;;;;;;;;1048796;28;2334;-49
2022/12/18 01:29:05;;;;;;;;;;;;;;;;;;1048974;28;2698;-50
2022/12/18 01:29:35;;;;;;;;;;;;;;;;;;1047928;28;2362;-48
2022/12/18 01:30:06;;;;;;;;;;;;;;;;;;1050992;28;1946;-51
2022/12/18 01:30:36;;;;;;;;;;;;;;;;;;1050039;28;2458;-50
2022/12/18 01:31:12;;;;;;;;;;;;;;;;;;1046370;28;2769;-54
2022/12/18 01:31:42;;;;;;;;;;;;;;;;;;1048939;28;1691;-51
2022/12/18 01:32:12;;;;;;;;;;;;;;;;;;1046551;28;1716;-49
2022/12/18 01:32:42;;;;;;;;;;;;;;;;;;1049184;28;2840;-49
2022/12/18 01:33:13;;;;;;;;;;;;;;;;;;1050936;28;1925;-52
2022/12/18 01:33:44;;;;;;;;;;;;;;;;;;1050823;28;1843;-52
2022/12/18 01:34:14;;;;;;;;;;;;;;;;;;1051214;28;1863;-50
2022/12/18 01:34:44;;;;;;;;;;;;;;;;;;1049275;28;3011;-52
2022/12/18 01:35:15;;;;;;;;;;;;;;;;;;1046498;28;2201;-51
2022/12/18 01:36:05;;;;;;;;;;;;;;;;;;1048769;28;2299;-49
2022/12/18 01:36:42;;;;;;;;;;;;;;;;;;1049239;28;2967;-51
2022/12/18 01:37:13;;;;;;;;;;;;;;;;;;1054871;28;1894;-49
2022/12/18 01:37:43;;;;;;;;;;;;;;;;;;1049671;28;2609;-48
2022/12/18 01:38:13;;;;;;;;;;;;;;;;;;1045292;28;2310;-50
2022/12/18 01:38:44;;;;;;;;;;;;;;;;;;1050107;28;2396;-52
2022/12/18 01:39:14;;;;;;;;;;;;;;;;;;1049658;28;2701;-52
2022/12/18 01:39:45;;;;;;;;;;;;;;;;;;1050169;28;2523;-49
2022/12/18 01:40:15;;;;;;;;;;;;;;;;;;1053946;28;2056;-49
2022/12/18 01:40:45;;;;;;;;;;;;;;;;;;1051043;28;2506;-49
2022/12/18 01:41:16;;;;;;;;;;;;;;;;;;1053106;28;2394;-51
2022/12/18 01:42:01;;;;;;;;;;;;;;;;;;1046498;28;2802;-49
2022/12/18 01:42:32;;;;;;;;;;;;;;;;;;1046987;28;1845;-48
2022/12/18 01:43:02;;;;;;;;;;;;;;;;;;1046433;28;2108;-52
2022/12/18 01:43:42;;;;;;;;;;;;;;;;;;1050294;28;2462;-51
2022/12/18 01:44:31;;;;;;;;;;;;;;;;;;1053765;28;2892;-50
2022/12/18 01:45:11;;;;;;;;;;;;;;;;;;1053486;28;2462;-49
2022/12/18 01:45:41;;;;;;;;;;;;;;;;;;1055009;28;1812;-51
2022/12/18 01:46:11;;;;;;;;;;;;;;;;;;1054748;28;2834;-49
2022/12/18 01:46:42;;;;;;;;;;;;;;;;;;1053612;28;2398;-50
2022/12/18 01:47:15;;;;;;;;;;;;;;;;;;1055685;28;1701;-50
2022/12/18 01:47:48;;;;;;;;;;;;;;;;;;1049350;28;2599;-50
2022/12/18 01:48:18;;;;;;;;;;;;;;;;;;1051172;28;2124;-50
2022/12/18 01:48:52;;;;;;;;;;;;;;;;;;1047965;28;1710;-49
2022/12/18 01:49:22;;;;;;;;;;;;;;;;;;1050999;28;2183;-49
2022/12/18 01:49:53;;;;;;;;;;;;;;;;;;1054129;28;2391;-49
2022/12/18 01:50:26;;;;;;;;;;;;;;;;;;1056523;28;2001;-51
2022/12/18 01:50:57;;;;;;;;;;;;;;;;;;1053124;28;2422;-51
2022/12/18 01:51:28;;;;;;;;;;;;;;;;;;1046850;28;1867;-48
2022/12/18 01:51:58;;;;;;;;;;;;;;;;;;1048210;28;2562;-51
2022/12/18 01:52:30;;;;;;;;;;;;;;;;;;1049252;28;2034;-48
2022/12/18 01:53:03;;;;;;;;;;;;;;;;;;1050292;28;2384;-50
2022/12/18 01:53:33;;;;;;;;;;;;;;;;;;1052141;28;2626;-50
2022/12/18 01:54:04;;;;;;;;;;;;;;;;;;1053367;28;2309;-50
2022/12/18 01:54:34;;;;;;;;;;;;;;;;;;1052893;28;2388;-53
2022/12/18 01:55:04;;;;;;;;;;;;;;;;;;1049603;28;2505;-53
2022/12/18 01:55:38;;;;;;;;;;;;;;;;;;1047517;28;1978;-50
2022/12/18 01:56:09;;;;;;;;;;;;;;;;;;1046949;28;3278;-51
2022/12/18 01:56:39;;;;;;;;;;;;;;;;;;1048028;28;2387;-53
2022/12/18 01:57:09;;;;;;;;;;;;;;;;;;1055405;28;2130;-52
2022/12/18 01:57:40;;;;;;;;;;;;;;;;;;1055762;28;2111;-51
2022/12/18 01:58:10;;;;;;;;;;;;;;;;;;1053992;28;2302;-53
2022/12/18 01:58:59;;;;;;;;;;;;;;;;;;1052822;28;2599;-50
2022/12/18 01:59:31;;;;;;;;;;;;;;;;;;1051616;28;2475;-50
2022/12/18 02:00:04;;;;;;;;;;;;;;;;;;1048196;28;2455;-51
2022/12/18 02:00:34;;;;;;;;;;;;;;;;;;1048618;28;2326;-51
2022/12/18 02:01:05;;;;;;;;;;;;;;;;;;1043395;28;2971;-51
2022/12/18 02:01:37;;;;;;;;;;;;;;;;;;1045547;28;2843;-51
2022/12/18 02:02:08;;;;;;;;;;;;;;;;;;1048046;28;1915;-50
2022/12/18 02:02:39;;;;;;;;;;;;;;;;;;1048060;28;2620;-49
2022/12/18 02:03:09;;;;;;;;;;;;;;;;;;1052342;28;2770;-49
2022/12/18 02:03:42;;;;;;;;;;;;;;;;;;1053998;28;2605;-48
2022/12/18 02:04:18;;;;;;;;;;;;;;;;;;1052163;28;2577;-50
2022/12/18 02:04:49;;;;;;;;;;;;;;;;;;1051833;28;2988;-51
2022/12/18 02:05:25;;;;;;;;;;;;;;;;;;1053609;28;2822;-49
2022/12/18 02:06:08;;;;;;;;;;;;;;;;;;1054394;28;2466;-49
2022/12/18 02:06:40;;;;;;;;;;;;;;;;;;1052489;28;2944;-50
2022/12/18 02:07:22;;;;;;;;;;;;;;;;;;1053178;28;2173;-54
2022/12/18 02:08:01;;;;;;;;;;;;;;;;;;1054245;28;2195;-50
2022/12/18 02:08:31;;;;;;;;;;;;;;;;;;1054645;28;2086;-49
2022/12/18 02:09:20;;;;;;;;;;;;;;;;;;1052535;28;2319;-50
2022/12/18 02:09:54;;;;;;;;;;;;;;;;;;1051909;28;2428;-51
2022/12/18 02:10:33;;;;;;;;;;;;;;;;;;1055337;28;2223;-52
2022/12/18 02:11:10;;;;;;;;;;;;;;;;;;1050042;28;2672;-50
2022/12/18 02:11:56;;;;;;;;;;;;;;;;;;1051315;28;2796;-49
2022/12/18 02:12:47;;;;;;;;;;;;;;;;;;1049422;28;2355;-54
2022/12/18 02:13:20;;;;;;;;;;;;;;;;;;1034685;28;2168;-50
2022/12/18 02:13:54;;;;;;;;;;;;;;;;;;1033158;28;2463;-49
2022/12/18 02:14:40;;;;;;;;;;;;;;;;;;1049641;28;3297;-53
2022/12/18 02:15:22;;;;;;;;;;;;;;;;;;1052065;28;2283;-50
2022/12/18 02:16:01;;;;;;;;;;;;;;;;;;1052214;28;2687;-49
2022/12/18 02:16:50;;;;;;;;;;;;;;;;;;1053360;28;2150;-50
2022/12/18 02:17:22;;;;;;;;;;;;;;;;;;1052688;28;2510;-49
2022/12/18 02:17:58;;;;;;;;;;;;;;;;;;1051122;28;2038;-51
2022/12/18 02:18:33;;;;;;;;;;;;;;;;;;1050029;28;2053;-50
2022/12/18 02:19:11;;;;;;;;;;;;;;;;;;1050195;28;2149;-49
2022/12/18 02:19:47;;;;;;;;;;;;;;;;;;1051688;28;2624;-50
2022/12/18 02:20:21;;;;;;;;;;;;;;;;;;1052841;28;2094;-49
2022/12/18 02:21:08;;;;;;;;;;;;;;;;;;1052194;28;2434;-50
2022/12/18 02:22:04;;;;;;;;;;;;;;;;;;1051644;28;1846;-49
2022/12/18 02:22:50;;;;;;;;;;;;;;;;;;1046322;28;1960;-51
2022/12/18 02:23:40;;;;;;;;;;;;;;;;;;1047673;28;2319;-52
2022/12/18 02:24:29;;;;;;;;;;;;;;;;;;1049957;28;2694;-50
2022/12/18 02:25:18;;;;;;;;;;;;;;;;;;1052882;28;2015;-50
2022/12/18 02:26:06;;;;;;;;;;;;;;;;;;1049615;28;2281;-49
2022/12/18 02:26:38;;;;;;;;;;;;;;;;;;1051512;28;2523;-48
2022/12/18 02:27:10;;;;;;;;;;;;;;;;;;1054543;28;2012;-50
2022/12/18 02:27:41;;;;;;;;;;;;;;;;;;1052306;28;2333;-49
2022/12/18 02:28:13;;;;;;;;;;;;;;;;;;1051675;28;2136;-49
2022/12/18 02:28:46;;;;;;;;;;;;;;;;;;1053300;28;2294;-48
2022/12/18 02:29:17;;;;;;;;;;;;;;;;;;1054923;28;1771;-50
2022/12/18 02:29:52;;;;;;;;;;;;;;;;;;1051269;28;1977;-51
2022/12/18 02:30:23;;;;;;;;;;;;;;;;;;1047704;28;1822;-54
2022/12/18 02:30:56;;;;;;;;;;;;;;;;;;1047699;28;3172;-49
2022/12/18 02:31:29;;;;;;;;;;;;;;;;;;1047803;28;2169;-51
2022/12/18 02:32:02;;;;;;;;;;;;;;;;;;1047769;28;2158;-50
2022/12/18 02:32:37;;;;;;;;;;;;;;;;;;1047385;28;2081;-51
2022/12/18 02:33:09;;;;;;;;;;;;;;;;;;1047262;28;1920;-50
2022/12/18 02:33:40;;;;;;;;;;;;;;;;;;1043667;28;2999;-49
2022/12/18 02:34:11;;;;;;;;;;;;;;;;;;1044025;28;2951;-50
2022/12/18 02:34:43;;;;;;;;;;;;;;;;;;1048358;28;2697;-49
2022/12/18 02:35:16;;;;;;;;;;;;;;;;;;1051023;28;3033;-53
2022/12/18 02:35:47;;;;;;;;;;;;;;;;;;1051391;28;2410;-49
2022/12/18 02:36:37;;;;;;;;;;;;;;;;;;1050915;28;2976;-50
2022/12/18 02:37:10;;;;;;;;;;;;;;;;;;1053030;28;1638;-49
2022/12/18 02:37:42;;;;;;;;;;;;;;;;;;1055104;28;2455;-51
2022/12/18 02:38:13;;;;;;;;;;;;;;;;;;1051218;28;1677;-50
2022/12/18 02:38:44;;;;;;;;;;;;;;;;;;1053663;28;2481;-48
2022/12/18 02:39:15;;;;;;;;;;;;;;;;;;1051479;28;2261;-51
2022/12/18 02:39:47;;;;;;;;;;;;;;;;;;1053817;28;1643;-48
2022/12/18 02:40:18;;;;;;;;;;;;;;;;;;1053796;28;2566;-51
2022/12/18 02:40:48;;;;;;;;;;;;;;;;;;1054730;28;2484;-52
2022/12/18 02:41:19;;;;;;;;;;;;;;;;;;1053428;28;2385;-50
2022/12/18 02:41:50;;;;;;;;;;;;;;;;;;1051580;28;2428;-51
2022/12/18 02:42:21;;;;;;;;;;;;;;;;;;1048763;28;2185;-49
2022/12/18 02:42:51;;;;;;;;;;;;;;;;;;1048519;28;2908;-50
2022/12/18 02:43:21;;;;;;;;;;;;;;;;;;1050677;28;2230;-54
2022/12/18 02:43:56;;;;;;;;;;;;;;;;;;1047721;28;2098;-49
2022/12/18 02:44:26;;;;;;;;;;;;;;;;;;1052686;28;2347;-48
2022/12/18 02:44:57;;;;;;;;;;;;;;;;;;1052189;28;2552;-51
2022/12/18 02:45:27;;;;;;;;;;;;;;;;;;1055311;28;1639;-50
2022/12/18 02:45:58;;;;;;;;;;;;;;;;;;1053657;28;2070;-49
2022/12/18 02:46:30;;;;;;;;;;;;;;;;;;1051739;28;2063;-52
2022/12/18 02:47:01;;;;;;;;;;;;;;;;;;1054304;28;2455;-51
2022/12/18 02:47:33;;;;;;;;;;;;;;;;;;1054662;28;2152;-48
2022/12/18 02:48:03;;;;;;;;;;;;;;;;;;1048007;28;2471;-50
2022/12/18 02:48:34;;;;;;;;;;;;;;;;;;1047672;28;2372;-52
2022/12/18 02:49:19;;;;;;;;;;;;;;;;;;1047791;28;3053;-52
2022/12/18 02:49:55;;;;;;;;;;;;;;;;;;1052384;27;2411;-50
2022/12/18 02:50:37;;;;;;;;;;;;;;;;;;1055690;27;2027;-50
2022/12/18 02:51:07;;;;;;;;;;;;;;;;;;1055195;27;2422;-53
2022/12/18 02:51:46;;;;;;;;;;;;;;;;;;1053390;28;2452;-50
2022/12/18 02:52:23;;;;;;;;;;;;;;;;;;1051392;28;3010;-50
2022/12/18 02:53:02;;;;;;;;;;;;;;;;;;1053045;28;2563;-49
2022/12/18 02:53:36;;;;;;;;;;;;;;;;;;1052060;28;2422;-53
2022/12/18 02:54:10;;;;;;;;;;;;;;;;;;1051027;28;2503;-52
2022/12/18 02:54:46;;;;;;;;;;;;;;;;;;1053067;28;2519;-49
2022/12/18 02:55:28;;;;;;;;;;;;;;;;;;1053769;28;2972;-47
2022/12/18 02:56:04;;;;;;;;;;;;;;;;;;1055764;28;1988;-50
2022/12/18 02:56:37;;;;;;;;;;;;;;;;;;1051678;28;2320;-50
2022/12/18 02:57:23;;;;;;;;;;;;;;;;;;1048344;28;3063;-49
2022/12/18 02:57:54;;;;;;;;;;;;;;;;;;1048178;28;2495;-48
2022/12/18 02:58:42;;;;;;;;;;;;;;;;;;1047714;28;2442;-50
2022/12/18 02:59:15;;;;;;;;;;;;;;;;;;1053105;28;2197;-49
2022/12/18 02:59:58;;;;;;;;;;;;;;;;;;1052145;28;2320;-50
2022/12/18 03:00:36;;;;;;;;;;;;;;;;;;1052300;28;2950;-49
2022/12/18 03:01:18;;;;;;;;;;;;;;;;;;1046530;28;2688;-49
2022/12/18 03:02:00;;;;;;;;;;;;;;;;;;1048132;28;2633;-48
2022/12/18 03:02:36;;;;;;;;;;;;;;;;;;1049440;28;2458;-50
2022/12/18 03:03:11;;;;;;;;;;;;;;;;;;1051612;28;2863;-54
2022/12/18 03:03:52;;;;;;;;;;;;;;;;;;1051474;28;2895;-49
2022/12/18 03:04:26;;;;;;;;;;;;;;;;;;1054233;28;2051;-49
2022/12/18 03:05:04;;;;;;;;;;;;;;;;;;1052689;28;3020;-51
2022/12/18 03:05:48;;;;;;;;;;;;;;;;;;1052077;28;2143;-52
2022/12/18 03:06:22;;;;;;;;;;;;;;;;;;1052027;28;2549;-49
2022/12/18 03:06:55;;;;;;;;;;;;;;;;;;1051082;28;2410;-50
2022/12/18 03:07:28;;;;;;;;;;;;;;;;;;1052440;28;2544;-51
2022/12/18 03:08:01;;;;;;;;;;;;;;;;;;1053724;28;2392;-51
2022/12/18 03:08:35;;;;;;;;;;;;;;;;;;1052837;28;3010;-51
2022/12/18 03:09:14;;;;;;;;;;;;;;;;;;1050985;28;2546;-54
2022/12/18 03:09:48;;;;;;;;;;;;;;;;;;1052037;28;2464;-51
2022/12/18 03:10:21;;;;;;;;;;;;;;;;;;1054943;28;2958;-49
2022/12/18 03:11:02;;;;;;;;;;;;;;;;;;1052127;28;2717;-51
2022/12/18 03:12:27;;;;;;;;;;;;;;;;;;1052726;28;2432;-49
2022/12/18 03:13:01;;;;;;;;;;;;;;;;;;1053959;28;2123;-49
2022/12/18 03:13:34;;;;;;;;;;;;;;;;;;1053471;28;2331;-51
2022/12/18 03:14:06;;;;;;;;;;;;;;;;;;1052739;28;2098;-53
2022/12/18 03:14:37;;;;;;;;;;;;;;;;;;1054247;28;2384;-52
2022/12/18 03:15:10;;;;;;;;;;;;;;;;;;1052318;28;2149;-50
2022/12/18 03:15:43;;;;;;;;;;;;;;;;;;1052866;28;2996;-53
2022/12/18 03:16:23;;;;;;;;;;;;;;;;;;1054283;28;2519;-49
2022/12/18 03:16:54;;;;;;;;;;;;;;;;;;1054712;28;2661;-51
2022/12/18 03:17:26;;;;;;;;;;;;;;;;;;1049556;28;2093;-51
2022/12/18 03:18:01;;;;;;;;;;;;;;;;;;1048292;28;2651;-50
2022/12/18 03:18:37;;;;;;;;;;;;;;;;;;1048560;28;3025;-49
2022/12/18 03:19:11;;;;;;;;;;;;;;;;;;1050756;28;2392;-50
2022/12/18 03:19:43;;;;;;;;;;;;;;;;;;1052784;28;2441;-53
2022/12/18 03:20:16;;;;;;;;;;;;;;;;;;1052535;28;2079;-50
2022/12/18 03:20:47;;;;;;;;;;;;;;;;;;1054897;28;2495;-50
2022/12/18 03:21:19;;;;;;;;;;;;;;;;;;1053836;28;2241;-50
2022/12/18 03:21:51;;;;;;;;;;;;;;;;;;1054320;28;2508;-52
2022/12/18 03:22:23;;;;;;;;;;;;;;;;;;1054479;28;2555;-52
2022/12/18 03:22:57;;;;;;;;;;;;;;;;;;1052436;28;2378;-50
2022/12/18 03:23:29;;;;;;;;;;;;;;;;;;1053344;28;2675;-49
2022/12/18 03:23:59;;;;;;;;;;;;;;;;;;1052975;28;2955;-51
2022/12/18 03:24:31;;;;;;;;;;;;;;;;;;1051265;28;2083;-51
2022/12/18 03:25:04;;;;;;;;;;;;;;;;;;1053047;28;2484;-53
2022/12/18 03:25:37;;;;;;;;;;;;;;;;;;1054989;28;2233;-53
2022/12/18 03:26:10;;;;;;;;;;;;;;;;;;1053741;28;2620;-50
2022/12/18 03:26:43;;;;;;;;;;;;;;;;;;1052187;28;2669;-50
2022/12/18 03:27:16;;;;;;;;;;;;;;;;;;1053363;28;2535;-53
2022/12/18 03:27:48;;;;;;;;;;;;;;;;;;1046626;28;2048;-49
2022/12/18 03:28:20;;;;;;;;;;;;;;;;;;1051041;28;2344;-49
2022/12/18 03:28:55;;;;;;;;;;;;;;;;;;1048607;28;2983;-51
2022/12/18 03:29:32;;;;;;;;;;;;;;;;;;1049852;28;2446;-51
2022/12/18 03:30:07;;;;;;;;;;;;;;;;;;1051238;28;2499;-50
2022/12/18 03:30:38;;;;;;;;;;;;;;;;;;1054802;28;2169;-48
2022/12/18 03:31:09;;;;;;;;;;;;;;;;;;1054250;28;2635;-48
2022/12/18 03:31:40;;;;;;;;;;;;;;;;;;1054610;28;2470;-50
2022/12/18 03:32:14;;;;;;;;;;;;;;;;;;1053407;28;2750;-51
2022/12/18 03:32:58;;;;;;;;;;;;;;;;;;1046846;28;2602;-52
2022/12/18 03:33:31;;;;;;;;;;;;;;;;;;1048732;28;2084;-50
2022/12/18 03:34:04;;;;;;;;;;;;;;;;;;1047635;28;2918;-49
2022/12/18 03:34:35;;;;;;;;;;;;;;;;;;1051523;28;2698;-51
2022/12/18 03:35:06;;;;;;;;;;;;;;;;;;1053355;28;1988;-48
2022/12/18 03:35:38;;;;;;;;;;;;;;;;;;1051899;28;2299;-49
2022/12/18 03:36:22;;;;;;;;;;;;;;;;;;1052096;28;2456;-51
2022/12/18 03:37:01;;;;;;;;;;;;;;;;;;1052400;28;2510;-48
2022/12/18 03:37:32;;;;;;;;;;;;;;;;;;1051548;28;2359;-51
2022/12/18 03:38:02;;;;;;;;;;;;;;;;;;1052567;28;2435;-51
2022/12/18 03:38:33;;;;;;;;;;;;;;;;;;1051186;28;2419;-51
2022/12/18 03:39:03;;;;;;;;;;;;;;;;;;1053431;28;2810;-49
2022/12/18 03:39:34;;;;;;;;;;;;;;;;;;1054687;28;2101;-48
2022/12/18 03:40:04;;;;;;;;;;;;;;;;;;1052752;28;2466;-53
2022/12/18 03:40:40;;;;;;;;;;;;;;;;;;1048981;28;2387;-53
2022/12/18 03:41:15;;;;;;;;;;;;;;;;;;1049408;28;2793;-52
2022/12/18 03:41:51;;;;;;;;;;;;;;;;;;1048696;28;2857;-52
2022/12/18 03:42:28;;;;;;;;;;;;;;;;;;1049882;28;2955;-51
2022/12/18 03:43:02;;;;;;;;;;;;;;;;;;1052231;28;2483;-51
2022/12/18 03:43:46;;;;;;;;;;;;;;;;;;1052713;28;2451;-49
2022/12/18 03:44:26;;;;;;;;;;;;;;;;;;1052501;28;2335;-50
2022/12/18 03:44:59;;;;;;;;;;;;;;;;;;1055329;28;2184;-53
2022/12/18 03:45:42;;;;;;;;;;;;;;;;;;1053106;28;2530;-50
2022/12/18 03:46:22;;;;;;;;;;;;;;;;;;1053876;28;2692;-52
2022/12/18 03:46:52;;;;;;;;;;;;;;;;;;1052497;28;2925;-50
2022/12/18 03:47:22;;;;;;;;;;;;;;;;;;1054800;28;2120;-52
2022/12/18 03:48:00;;;;;;;;;;;;;;;;;;1054536;28;2198;-51
2022/12/18 03:48:45;;;;;;;;;;;;;;;;;;1051919;28;2994;-51
2022/12/18 03:49:22;;;;;;;;;;;;;;;;;;1054988;28;2219;-48
2022/12/18 03:50:11;;;;;;;;;;;;;;;;;;1053680;28;2399;-50
2022/12/18 03:50:47;;;;;;;;;;;;;;;;;;1054421;28;2487;-51
2022/12/18 03:51:23;;;;;;;;;;;;;;;;;;1053490;28;2241;-48
2022/12/18 03:52:03;;;;;;;;;;;;;;;;;;1051680;28;2576;-49
2022/12/18 03:52:38;;;;;;;;;;;;;;;;;;1052439;28;2437;-49
2022/12/18 03:53:20;;;;;;;;;;;;;;;;;;1052602;28;2138;-51